Puerto Banus, Marbella

>

This is an optional block (switch it off / on) in the settings - file ($SITE['banners'] = false;)

You can display ads, any other important text or photo’s using text / html or PHP code.

You can place one or more at the top and or bottom and it can all be different for content / size .



Meteosat more information blitzortung!


Radar lluvias  rain snow radar


Visita nuestra red de sitios de meteo:

Documentation for the template used

MeteoibericaRed estaciones Meteorologicas

MeteoclimaticRed estaciones Meteorologicas



Viento Desde: 19-04-2018 23:00 Hasta: 21-04-2018 04:59 Advertencias para: Viento Nivel: Amarillo info button

Pagina Historial Weather Underground texto

Diario Resumen January 2, 2018 Unidades:  Métrico    impérial   Tanto
« Anterior Dia
Siguiente Dia »
Diario Semana Mensual Anual Personalizada
  Maxima: Minima: Media:
Temperatura: -17.8 °C -12.2 °C -9.9 °C
Punto de rocío: -17.8 °C -16.8 °C -14.2 °C
Humedad: Humidity % 45 % 60 %
Velocidad del Viento: 0 km/h 0 km/h 12.2 km/h
Ráfagas de viento: 0 km/h - -
Viento:- - WSW
Pression baro: 0 hPa 34865.6 hPa -
Précipitaciones: 0 mm    
Historical Graphs
 
 
Datos de tabla para January 2, 2018
Tiempo Temperatura Punto de rocío Pression baro Viento Velocidad del Viento Ráfagas de viento Humedad Las precipitaciones Rate ( Hora )
-17.8 °C -17.8 °C 0 hPa Calm     Humidity % 0 mm
00:00 -10.1 °C -15.8 °C 34967.2 hPa NNW 6 km/h 6 km/h 50 % 0 mm
00:01 -10.1 °C -15.7 °C 34967.2 hPa NNW 10.3 km/h 10.3 km/h 51 % 0 mm
00:06 -10.2 °C -15.2 °C 34967.2 hPa WSW 11.9 km/h 11.9 km/h 55 % 0 mm
00:09 -10.2 °C -15.2 °C 34967.2 hPa WSW 9 km/h 9 km/h 55 % 0 mm
00:11 -10.3 °C -15.4 °C 34967.2 hPa WSW 9 km/h 9 km/h 54 % 0 mm
00:16 -10.4 °C -16.1 °C 34967.2 hPa WSW 3.1 km/h   50 % 0 mm
00:17 -10.4 °C -16.1 °C 34967.2 hPa Calm     50 % 0 mm
00:21 -10.4 °C -16.4 °C 34967.2 hPa Calm     48 % 0 mm
00:24 -10.4 °C -16.6 °C 34957.1 hPa WSW 3.1 km/h   47 % 0 mm
00:27 -10.4 °C -16.8 °C 34957.1 hPa Calm     46 % 0 mm
00:30 -10.4 °C -16.6 °C 34967.2 hPa WSW 6 km/h 6 km/h 47 % 0 mm
00:32 -10.4 °C -16.4 °C 34957.1 hPa WSW 6 km/h 6 km/h 48 % 0 mm
00:37 -10.6 °C -16.6 °C 34957.1 hPa North 12.9 km/h 12.9 km/h 48 % 0 mm
00:39 -10.7 °C -16.6 °C 34957.1 hPa North 11.9 km/h 11.9 km/h 49 % 0 mm
00:42 -10.9 °C -16.6 °C 34957.1 hPa North 17.9 km/h 17.9 km/h 50 % 0 mm
00:47 -11.1 °C -16.5 °C 34957.1 hPa North 12.9 km/h 12.9 km/h 51 % 0 mm
00:48 -11.1 °C -16.5 °C 34957.1 hPa North 17.9 km/h 17.9 km/h 51 % 0 mm
00:53 -11.1 °C -16.4 °C 34957.1 hPa NNW 20.9 km/h 20.9 km/h 52 % 0 mm
00:55 -11.2 °C -16.5 °C 34957.1 hPa NNW 20.9 km/h 20.9 km/h 52 % 0 mm
01:00 -11.2 °C -16.5 °C 34946.9 hPa NNW 15 km/h 15 km/h 52 % 0 mm
01:01 -11.2 °C -16.4 °C 34957.1 hPa NNW 15 km/h 15 km/h 52 % 0 mm
01:06 -11.1 °C -16.4 °C 34957.1 hPa NW 11.9 km/h 11.9 km/h 52 % 0 mm
01:11 -11 °C -16.5 °C 34946.9 hPa NNW 9 km/h 9 km/h 51 % 0 mm
01:16 -11 °C -16.4 °C 34957.1 hPa NNW 12.9 km/h 12.9 km/h 51 % 0 mm
01:18 -11 °C -16.5 °C 34946.9 hPa North 17.9 km/h 17.9 km/h 51 % 0 mm
01:22 -11.1 °C -16.6 °C 34946.9 hPa NNW 20.9 km/h 20.9 km/h 51 % 0 mm
01:23 -11.1 °C -16.6 °C 34946.9 hPa NNW 20.9 km/h 20.9 km/h 51 % 0 mm
01:28 -11.1 °C -16.4 °C 34946.9 hPa NNW 15 km/h 15 km/h 52 % 0 mm
01:29 -11.1 °C -16.4 °C 34946.9 hPa NNW 11.9 km/h 11.9 km/h 52 % 0 mm
01:31 -11.1 °C -16.4 °C 34946.9 hPa NNW 17.9 km/h 17.9 km/h 52 % 0 mm
01:34 -11.1 °C -16.4 °C 34946.9 hPa NNW 15 km/h 15 km/h 52 % 0 mm
01:39 -11.1 °C -16.3 °C 34946.9 hPa NNW 11.9 km/h 11.9 km/h 52 % 0 mm
01:41 -11.1 °C -16.3 °C 34946.9 hPa NNW 11.9 km/h 11.9 km/h 52 % 0 mm
01:46 -11.1 °C -16.2 °C 34933.4 hPa NNW 15 km/h 15 km/h 53 % 0 mm
01:47 -11.1 °C -16.2 °C 34933.4 hPa NNW 15 km/h 15 km/h 53 % 0 mm
01:50 -11.1 °C -16.2 °C 34946.9 hPa NNW 9 km/h 9 km/h 53 % 0 mm
01:52 -11 °C -15.9 °C 34946.9 hPa WSW 9 km/h 9 km/h 55 % 0 mm
01:56 -10.9 °C -15.7 °C 34946.9 hPa WSW 6 km/h 6 km/h 56 % 0 mm
01:58 -11 °C -15.7 °C 34946.9 hPa WNW 9 km/h 9 km/h 56 % 0 mm
02:03 -11 °C -16 °C 34933.4 hPa NW 6 km/h 6 km/h 54 % 0 mm
02:05 -10.9 °C -16 °C 34933.4 hPa Calm     54 % 0 mm
02:09 -11 °C -16 °C 34933.4 hPa NW 6 km/h 6 km/h 54 % 0 mm
02:10 -11 °C -16 °C 34933.4 hPa NW 6 km/h 6 km/h 54 % 0 mm
02:15 -11 °C -15.9 °C 34933.4 hPa NW 6 km/h 6 km/h 55 % 0 mm
02:16 -11 °C -15.9 °C 34933.4 hPa NW 6 km/h 6 km/h 55 % 0 mm
02:21 -11.1 °C -15.7 °C 34933.4 hPa WSW 11.9 km/h 11.9 km/h 57 % 0 mm
02:23 -11.1 °C -15.8 °C 34933.4 hPa WSW 9 km/h 9 km/h 56 % 0 mm
02:27 -11 °C -15.7 °C 34933.4 hPa NW 12.9 km/h 12.9 km/h 56 % 0 mm
02:30 -10.9 °C -15.9 °C 34933.4 hPa WNW 17.9 km/h 17.9 km/h 54 % 0 mm
02:33 -10.7 °C -15.9 °C 34933.4 hPa WNW 10.3 km/h 10.3 km/h 53 % 0 mm
02:37 -10.6 °C -15.8 °C 34933.4 hPa NW 7.7 km/h 7.7 km/h 53 % 0 mm
02:38 -10.6 °C -15.8 °C 34933.4 hPa NW 9 km/h 9 km/h 53 % 0 mm
02:43 -11 °C -15.7 °C 34933.4 hPa North 9 km/h 9 km/h 56 % 0 mm
02:48 -11.5 °C -15.8 °C 34933.4 hPa NE 9 km/h 9.7 km/h 59 % 0 mm
02:53 -11.6 °C -15.8 °C 34933.4 hPa NE 9 km/h 9 km/h 60 % 0 mm
02:54 -11.7 °C -15.8 °C 34933.4 hPa NE 6 km/h 6 km/h 60 % 0 mm
02:59 -11.6 °C -15.9 °C 34933.4 hPa NNE 9 km/h 9 km/h 59 % 0 mm
03:04 -11.6 °C -15.7 °C 34933.4 hPa NNE 9 km/h 9 km/h 60 % 0 mm
03:05 -11.6 °C -15.7 °C 34933.4 hPa NNE 9 km/h 9 km/h 60 % 0 mm
03:09 -11.6 °C -15.7 °C 34946.9 hPa North 9 km/h 9 km/h 60 % 0 mm
03:11 -11.6 °C -15.7 °C 34946.9 hPa North 9 km/h 9 km/h 60 % 0 mm
03:16 -11.7 °C -15.8 °C 34946.9 hPa North 9 km/h 9 km/h 60 % 0 mm
03:19 -11.8 °C -15.8 °C 34946.9 hPa North 11.9 km/h 11.9 km/h 61 % 0 mm
03:23 -11.8 °C -15.8 °C 34946.9 hPa North 11.9 km/h 11.9 km/h 61 % 0 mm
03:28 -11.7 °C -15.8 °C 34946.9 hPa NNW 9 km/h 9 km/h 60 % 0 mm
03:30 -11.7 °C -15.8 °C 34946.9 hPa NNW 9 km/h 9.7 km/h 60 % 0 mm
03:33 -11.6 °C -15.7 °C 34946.9 hPa NNW 9 km/h 9 km/h 60 % 0 mm
03:38 -11.4 °C -15.6 °C 34946.9 hPa NNW 7.7 km/h 7.7 km/h 60 % 0 mm
03:39 -11.4 °C -15.6 °C 34946.9 hPa NNW 7.7 km/h 7.7 km/h 60 % 0 mm
03:43 -11.3 °C -15.4 °C 34946.9 hPa NNW 9 km/h 9 km/h 60 % 0 mm
03:44 -11.3 °C -15.4 °C 34946.9 hPa NNW 10.3 km/h 10.3 km/h 60 % 0 mm
03:49 -11.2 °C -15.5 °C 34946.9 hPa NNW 6 km/h 6 km/h 59 % 0 mm
03:51 -11.2 °C -15.6 °C 34946.9 hPa NNW 11.9 km/h 11.9 km/h 58 % 0 mm
03:56 -11.3 °C -15.6 °C 34946.9 hPa NNW 11.9 km/h 11.9 km/h 59 % 0 mm
04:01 -11.4 °C -15.7 °C 34933.4 hPa NNW 15 km/h 15 km/h 59 % 0 mm
04:02 -11.4 °C -15.7 °C 34933.4 hPa NNW 15 km/h 15 km/h 59 % 0 mm
04:04 -11.4 °C -15.7 °C 34933.4 hPa NNW 15 km/h 15 km/h 59 % 0 mm
04:09 -11.4 °C -15.7 °C 34933.4 hPa North 11.9 km/h 11.9 km/h 59 % 0 mm
04:15 -11.4 °C -15.7 °C 34933.4 hPa NNW 7.7 km/h 15.6 km/h 59 % 0 mm
04:19 -11.4 °C -15.7 °C 34933.4 hPa NNW 9 km/h 9 km/h 59 % 0 mm
04:24 -11.3 °C -15.8 °C 34933.4 hPa NW 15 km/h 15 km/h 58 % 0 mm
04:29 -11.6 °C -15.8 °C 34933.4 hPa NNW 20.9 km/h 20.9 km/h 59 % 0 mm
04:33 -11.6 °C -15.8 °C 34933.4 hPa NNW 12.9 km/h 12.9 km/h 60 % 0 mm
04:38 -11.6 °C -15.8 °C 34933.4 hPa NNW 11.9 km/h 11.9 km/h 60 % 0 mm
04:42 -11.7 °C -15.7 °C 34933.4 hPa North 12.9 km/h 12.9 km/h 61 % 0 mm
04:43 -11.7 °C -15.7 °C 34933.4 hPa North 15.6 km/h 15.6 km/h 61 % 0 mm
04:48 -11.9 °C -15.9 °C 34933.4 hPa North 15 km/h 15 km/h 61 % 0 mm
04:49 -11.9 °C -15.9 °C 34933.4 hPa NNW 18.2 km/h 18.2 km/h 61 % 0 mm
04:50 -11.9 °C -15.9 °C 34933.4 hPa NW 20.9 km/h 20.9 km/h 61 % 0 mm
04:55 -11.8 °C -15.8 °C 34933.4 hPa NNE 18.2 km/h 18.2 km/h 61 % 0 mm
04:56 -11.8 °C -15.8 °C 34933.4 hPa North 18.2 km/h 18.2 km/h 61 % 0 mm
05:01 -11.9 °C -15.7 °C 34933.4 hPa NNW 20.9 km/h 20.9 km/h 63 % 0 mm
05:02 -12 °C -15.7 °C 34933.4 hPa North 23.3 km/h 23.3 km/h 63 % 0 mm
05:08 -12.1 °C -15.6 °C 34923.2 hPa NNW 23.8 km/h 23.8 km/h 65 % 0 mm
05:13 -12.1 °C -15.7 °C 34923.2 hPa NNW 23.8 km/h 23.8 km/h 64 % 0 mm
05:18 -11.9 °C -15.6 °C 34923.2 hPa North 20.9 km/h 20.9 km/h 64 % 0 mm
05:19 -11.8 °C -15.6 °C 34923.2 hPa North 26.9 km/h 26.9 km/h 63 % 0 mm
05:24 -11.8 °C -15.6 °C 34923.2 hPa NNW 20.9 km/h 20.9 km/h 63 % 0 mm
05:26 -11.8 °C -15.5 °C 34923.2 hPa NNW 17.9 km/h 17.9 km/h 63 % 0 mm
05:29 -11.7 °C -15.6 °C 34923.2 hPa NNW 20.9 km/h 20.9 km/h 62 % 0 mm
05:34 -11.7 °C -15.7 °C 34923.2 hPa North 17.9 km/h 17.9 km/h 61 % 0 mm
05:35 -11.7 °C -15.7 °C 34909.7 hPa North 17.9 km/h 17.9 km/h 61 % 0 mm
05:40 -11.9 °C -15.7 °C 34923.2 hPa North 20.9 km/h 20.9 km/h 63 % 0 mm
05:41 -11.9 °C -15.7 °C 34923.2 hPa NNW 23.8 km/h 23.8 km/h 63 % 0 mm
05:48 -11.9 °C -15.7 °C 34909.7 hPa NNW 17.9 km/h 17.9 km/h 63 % 0 mm
05:56 -11.9 °C -15.7 °C 34909.7 hPa North 20.9 km/h 20.9 km/h 63 % 0 mm
06:00 -12.1 °C -15.7 °C 34909.7 hPa NNW 17.9 km/h 17.9 km/h 64 % 0 mm
06:02 -12.1 °C -15.7 °C 34909.7 hPa NNW 20.9 km/h 20.9 km/h 64 % 0 mm
06:08 -12.1 °C -15.7 °C 34909.7 hPa North 23.8 km/h 23.8 km/h 64 % 0 mm
06:12 -12.1 °C -15.7 °C 34909.7 hPa NNW 20.9 km/h 20.9 km/h 64 % 0 mm
06:13 -12.1 °C -15.6 °C 34909.7 hPa North 20.8 km/h 20.8 km/h 65 % 0 mm
06:20 -12.2 °C -15.7 °C 34909.7 hPa NNW 20.9 km/h 20.9 km/h 65 % 0 mm
06:21 -12.2 °C -15.7 °C 34909.7 hPa NNW 17.9 km/h 17.9 km/h 65 % 0 mm
06:26 -12.2 °C -15.7 °C 34909.7 hPa North 15.6 km/h 15.6 km/h 65 % 0 mm
06:30 -12.2 °C -15.7 °C 34909.7 hPa NNW 15 km/h 15 km/h 65 % 0 mm
06:35 -12.1 °C -15.6 °C 34909.7 hPa NNW 17.9 km/h 17.9 km/h 65 % 0 mm
06:40 -12.1 °C -15.6 °C 34909.7 hPa NNW 20.9 km/h 20.9 km/h 65 % 0 mm
06:41 -12.1 °C -15.6 °C 34909.7 hPa NNW 20.9 km/h 20.9 km/h 65 % 0 mm
06:43 -12.1 °C -15.6 °C 34909.7 hPa North 11.9 km/h 11.9 km/h 65 % 0 mm
06:48 -12.1 °C -15.6 °C 34909.7 hPa NNW 18.2 km/h 18.2 km/h 65 % 0 mm
06:53 -12.2 °C -15.7 °C 34909.7 hPa NNW 17.9 km/h 17.9 km/h 65 % 0 mm
06:58 -12.2 °C -15.7 °C 34909.7 hPa North 12.9 km/h 12.9 km/h 65 % 0 mm
06:59 -12.2 °C -15.7 °C 34909.7 hPa North 20.8 km/h 20.8 km/h 65 % 0 mm
07:03 -12.1 °C -15.6 °C 34909.7 hPa North 18.2 km/h 18.2 km/h 65 % 0 mm
07:08 -12.1 °C -15.7 °C 34923.2 hPa NNW 17.9 km/h 17.9 km/h 64 % 0 mm
07:09 -12 °C -15.6 °C 34909.7 hPa North 15.6 km/h 15.6 km/h 64 % 0 mm
07:14 -11.9 °C -15.7 °C 34923.2 hPa NNE 18.2 km/h 18.2 km/h 63 % 0 mm
07:17 -11.9 °C -15.7 °C 34923.2 hPa NNW 29.8 km/h 29.8 km/h 63 % 0 mm
07:19 -12.1 °C -15.7 °C 34923.2 hPa NW 17.9 km/h 17.9 km/h 64 % 0 mm
07:24 -11.9 °C -15.6 °C 34923.2 hPa NNW 29.8 km/h 29.8 km/h 64 % 0 mm
07:27 -11.9 °C -15.6 °C 34923.2 hPa NNW 17.9 km/h 17.9 km/h 64 % 0 mm
07:30 -11.9 °C -15.7 °C 34923.2 hPa NNW 17.9 km/h 17.9 km/h 63 % 0 mm
07:35 -11.8 °C -15.6 °C 34933.4 hPa North 18.2 km/h 18.2 km/h 63 % 0 mm
07:40 -11.9 °C -15.7 °C 34933.4 hPa NNW 20.9 km/h 20.9 km/h 63 % 0 mm
07:41 -11.9 °C -15.7 °C 34933.4 hPa NNW 20.9 km/h 20.9 km/h 63 % 0 mm
07:42 -11.9 °C -15.7 °C 34933.4 hPa NNW 20.9 km/h 20.9 km/h 63 % 0 mm
07:46 -12 °C -15.6 °C 34933.4 hPa NNW 23.8 km/h 23.8 km/h 64 % 0 mm
07:51 -12.1 °C -15.7 °C 34933.4 hPa NNW 23.8 km/h 23.8 km/h 64 % 0 mm
07:56 -12.1 °C -15.7 °C 34933.4 hPa NNW 17.9 km/h 17.9 km/h 64 % 0 mm
07:59 -12 °C -15.6 °C 34933.4 hPa NNW 17.9 km/h 17.9 km/h 64 % 0 mm
08:01 -11.9 °C -15.7 °C 34933.4 hPa NNW 17.9 km/h 17.9 km/h 63 % 0 mm
08:06 -11.8 °C -15.7 °C 34933.4 hPa North 20.8 km/h 20.8 km/h 62 % 0 mm
08:07 -11.8 °C -15.6 °C 34933.4 hPa North 23.3 km/h 23.3 km/h 63 % 0 mm
08:10 -11.9 °C -15.7 °C 34933.4 hPa NNW 20.9 km/h 20.9 km/h 63 % 0 mm
08:13 -11.9 °C -15.8 °C 34946.9 hPa North 18.2 km/h 18.2 km/h 62 % 0 mm
08:15 -11.9 °C -15.8 °C 34946.9 hPa NNW 17.9 km/h 17.9 km/h 62 % 0 mm
08:20 -11.8 °C -15.7 °C 34946.9 hPa NNW 15 km/h 15 km/h 62 % 0 mm
08:22 -11.8 °C -15.7 °C 34946.9 hPa NNW 17.9 km/h 17.9 km/h 62 % 0 mm
08:26 -11.8 °C -15.7 °C 34946.9 hPa North 17.9 km/h 17.9 km/h 62 % 0 mm
08:31 -12 °C -15.9 °C 34946.9 hPa NNW 11.9 km/h 11.9 km/h 62 % 0 mm
08:33 -11.9 °C -15.8 °C 34946.9 hPa North 18.2 km/h 18.2 km/h 62 % 0 mm
08:38 -11.8 °C -15.9 °C 34946.9 hPa North 15 km/h 15 km/h 61 % 0 mm
08:40 -11.8 °C -15.9 °C 34946.9 hPa North 29.8 km/h 29.8 km/h 61 % 0 mm
08:44 -11.9 °C -15.9 °C 34946.9 hPa NNW 17.9 km/h 17.9 km/h 61 % 0 mm
08:48 -11.8 °C -16 °C 34946.9 hPa NNW 17.9 km/h 17.9 km/h 60 % 0 mm
08:49 -11.8 °C -15.9 °C 34946.9 hPa North 23.3 km/h 23.3 km/h 60 % 0 mm
08:56 -11.8 °C -15.9 °C 34946.9 hPa NNW 17.9 km/h 17.9 km/h 60 % 0 mm
09:01 -11.8 °C -15.9 °C 34946.9 hPa North 18.2 km/h 18.2 km/h 60 % 0 mm
09:02 -11.8 °C -15.8 °C 34946.9 hPa NNW 20.9 km/h 20.9 km/h 61 % 0 mm
09:07 -11.7 °C -16 °C 34946.9 hPa NNW 17.9 km/h 17.9 km/h 59 % 0 mm
09:08 -11.6 °C -15.9 °C 34946.9 hPa NNW 17.9 km/h 17.9 km/h 59 % 0 mm
09:10 -11.6 °C -16 °C 34946.9 hPa NNW 11.9 km/h 11.9 km/h 58 % 0 mm
09:14 -11.5 °C -15.9 °C 34946.9 hPa North 17.9 km/h 17.9 km/h 58 % 0 mm
09:19 -11.4 °C -15.9 °C 34946.9 hPa North 9 km/h 9 km/h 58 % 0 mm
09:22 -11.4 °C -15.9 °C 34957.1 hPa North 11.9 km/h 11.9 km/h 58 % 0 mm
09:25 -11.4 °C -15.8 °C 34957.1 hPa North 9 km/h 9 km/h 58 % 0 mm
09:30 -11.3 °C -16 °C 34946.9 hPa WNW 15 km/h 15 km/h 56 % 0 mm
09:35 -11.2 °C -15.7 °C 34957.1 hPa NE 9 km/h 9 km/h 57 % 0 mm
09:37 -11.2 °C -15.7 °C 34946.9 hPa WNW 9 km/h 9 km/h 57 % 0 mm
09:42 -11 °C -15.7 °C 34957.1 hPa NNW 9 km/h 9 km/h 56 % 0 mm
09:43 -11 °C -15.7 °C 34957.1 hPa NNW 9 km/h 9 km/h 56 % 0 mm
09:48 -10.9 °C -15.7 °C 34957.1 hPa NNW 6 km/h 6 km/h 55 % 0 mm
09:53 -10.7 °C -15.6 °C 34957.1 hPa Calm     55 % 0 mm
09:55 -10.7 °C -15.4 °C 34946.9 hPa Calm     56 % 0 mm
10:01 -10.5 °C -15.3 °C 34957.1 hPa NE 6 km/h 6 km/h 56 % 0 mm
10:06 -10.4 °C -15.5 °C 34957.1 hPa North 6 km/h 6 km/h 54 % 0 mm
10:07 -10.4 °C -15.5 °C 34957.1 hPa North 11.9 km/h 11.9 km/h 54 % 0 mm
10:08 -10.4 °C -15.4 °C 34957.1 hPa NNW 9 km/h 9 km/h 54 % 0 mm
10:12 -10.3 °C -15.5 °C 34957.1 hPa NNE 12.9 km/h 12.9 km/h 53 % 0 mm
10:18 -10.1 °C -15.4 °C 34957.1 hPa NNE 18.2 km/h 18.2 km/h 53 % 0 mm
10:19 -10.1 °C -15.5 °C 34957.1 hPa North 20.9 km/h 20.9 km/h 52 % 0 mm
10:24 -10.1 °C -15.8 °C 34957.1 hPa North 15.6 km/h 15.6 km/h 50 % 0 mm
10:25 -10.1 °C -15.8 °C 34957.1 hPa NNW 15 km/h 15 km/h 50 % 0 mm
10:27 -10 °C -15.7 °C 34957.1 hPa NNW 11.9 km/h 11.9 km/h 50 % 0 mm
10:31 -9.8 °C -15.6 °C 34957.1 hPa North 11.9 km/h 11.9 km/h 50 % 0 mm
10:36 -9.8 °C -16.3 °C 34957.1 hPa North 17.9 km/h 17.9 km/h 45 % 0 mm
10:41 -9.6 °C -15.2 °C 34957.1 hPa West 9 km/h 9 km/h 51 % 0 mm
10:42 -9.6 °C -15.2 °C 34957.1 hPa West 9 km/h 9 km/h 51 % 0 mm
10:44 -9.5 °C -14.6 °C 34957.1 hPa West 9 km/h 9 km/h 54 % 0 mm
10:49 -9.4 °C -14.3 °C 34957.1 hPa West 6 km/h 6 km/h 56 % 0 mm
10:55 -9.3 °C -13.9 °C 34957.1 hPa WSW 6 km/h 6 km/h 58 % 0 mm
11:00 -9.3 °C -13.5 °C 34957.1 hPa SW 11.9 km/h 11.9 km/h 61 % 0 mm
11:04 -9.3 °C -13.4 °C 34967.2 hPa SW 9 km/h 9 km/h 62 % 0 mm
11:05 -9.4 °C -13.4 °C 34967.2 hPa SW 9 km/h 9 km/h 62 % 0 mm
11:09 -9.4 °C -13.3 °C 34967.2 hPa SW 10.3 km/h 10.3 km/h 63 % 0 mm
11:14 -9.6 °C -13.4 °C 34957.1 hPa SW 11.9 km/h 11.9 km/h 63 % 0 mm
11:15 -9.6 °C -13.4 °C 34957.1 hPa SW 11.9 km/h 11.9 km/h 63 % 0 mm
11:20 -9.6 °C -13.5 °C 34957.1 hPa SW 15 km/h 15 km/h 63 % 0 mm
11:25 -9.7 °C -13.7 °C 34967.2 hPa WSW 11.9 km/h 11.9 km/h 62 % 0 mm
11:26 -9.7 °C -13.8 °C 34967.2 hPa WSW 12.9 km/h 12.9 km/h 61 % 0 mm
11:28 -9.7 °C -13.9 °C 34967.2 hPa WSW 12.9 km/h 12.9 km/h 60 % 0 mm
11:32 -9.6 °C -13.8 °C 34957.1 hPa WSW 10.3 km/h 10.3 km/h 61 % 0 mm
11:37 -9.6 °C -13.2 °C 34967.2 hPa SW 15 km/h 15 km/h 65 % 0 mm
11:38 -9.6 °C -13.2 °C 34967.2 hPa SW 12.9 km/h 12.9 km/h 65 % 0 mm
11:43 -9.6 °C -13 °C 34967.2 hPa SW 15 km/h 15 km/h 66 % 0 mm
11:46 -9.5 °C -12.9 °C 34967.2 hPa SW 11.9 km/h 11.9 km/h 67 % 0 mm
11:49 -9.5 °C -12.8 °C 34957.1 hPa SW 15 km/h 15 km/h 67 % 0 mm
11:54 -9.4 °C -12.7 °C 34957.1 hPa SW 15 km/h 15 km/h 68 % 0 mm
11:58 -9.4 °C -12.7 °C 34957.1 hPa WSW 15 km/h 15 km/h 68 % 0 mm
11:59 -9.4 °C -12.7 °C 34957.1 hPa WSW 9 km/h 9 km/h 68 % 0 mm
12:04 -9.4 °C -12.9 °C 34957.1 hPa SW 9 km/h 9 km/h 66 % 0 mm
12:08 -9.4 °C -12.9 °C 34957.1 hPa SW 10.3 km/h 10.3 km/h 66 % 0 mm
12:13 -9.4 °C -12.9 °C 34957.1 hPa SW 9 km/h 9 km/h 66 % 0 mm
12:16 -9.3 °C -12.9 °C 34957.1 hPa SW 5.1 km/h 5.1 km/h 66 % 0 mm
12:21 -9.2 °C -12.7 °C 34946.9 hPa SW 9 km/h 9 km/h 66 % 0 mm
12:26 -9.1 °C -12.7 °C 34946.9 hPa SW 9 km/h 9 km/h 66 % 0 mm
12:29 -9.1 °C -12.3 °C 34946.9 hPa SW 9 km/h 9 km/h 68 % 0 mm
12:33 -9.1 °C -12.3 °C 34946.9 hPa SW 9 km/h 9 km/h 68 % 0 mm
12:38 -9.1 °C -12.3 °C 34946.9 hPa SW 6 km/h 6 km/h 68 % 0 mm
12:39 -9.1 °C -12.3 °C 34933.4 hPa SW 9 km/h 9 km/h 68 % 0 mm
12:40 -9 °C -12.2 °C 34933.4 hPa SW 9 km/h 9 km/h 69 % 0 mm
12:45 -9 °C -12.3 °C 34933.4 hPa SW 6 km/h 6 km/h 68 % 0 mm
12:46 -8.9 °C -12.2 °C 34933.4 hPa SW 3.1 km/h   68 % 0 mm
12:53 -8.8 °C -12.1 °C 34933.4 hPa Calm     68 % 0 mm
12:59 -8.8 °C -12.1 °C 34923.2 hPa SW 9 km/h 9 km/h 68 % 0 mm
13:02 -8.8 °C -12.1 °C 34923.2 hPa SW 6 km/h 6 km/h 68 % 0 mm
13:04 -8.8 °C -12.1 °C 34923.2 hPa SW 6 km/h 6 km/h 68 % 0 mm
13:09 -8.8 °C -12.1 °C 34923.2 hPa SW 6 km/h 6 km/h 68 % 0 mm
13:10 -8.8 °C -12.1 °C 34923.2 hPa SW 6 km/h 6 km/h 68 % 0 mm
13:15 -8.7 °C -11.9 °C 34909.7 hPa Calm     69 % 0 mm
13:20 -8.8 °C -11.9 °C 34909.7 hPa Calm     69 % 0 mm
13:23 -8.8 °C -12.1 °C 34909.7 hPa Calm     68 % 0 mm
13:26 -8.8 °C -12 °C 34909.7 hPa Calm     69 % 0 mm
13:30 -8.8 °C -12.1 °C 34909.7 hPa Calm     68 % 0 mm
13:35 -8.8 °C -12.1 °C 34899.5 hPa Calm     68 % 0 mm
13:39 -8.8 °C -12.1 °C 34899.5 hPa Calm     68 % 0 mm
13:41 -8.7 °C -12.1 °C 34899.5 hPa Calm     68 % 0 mm
13:44 -8.7 °C -12.1 °C 34899.5 hPa Calm     67 % 0 mm
13:46 -8.7 °C -12.4 °C 34899.5 hPa Calm     64 % 0 mm
13:51 -8.7 °C -12.3 °C 34899.5 hPa Calm     65 % 0 mm
13:53 -8.7 °C -12.3 °C 34899.5 hPa Calm     65 % 0 mm
13:58 -8.8 °C -12.1 °C 34889.3 hPa SW 6 km/h 6 km/h 68 % 0 mm
14:03 -8.7 °C -11.7 °C 34889.3 hPa SW 3.1 km/h 3.1 km/h 70 % 0 mm
14:08 -8.5 °C -11.7 °C 34889.3 hPa Calm     69 % 0 mm
14:13 -8.4 °C -11.6 °C 34875.8 hPa Calm     69 % 0 mm
14:14 -8.4 °C -11.6 °C 34875.8 hPa Calm     69 % 0 mm
14:25 -8.4 °C -11.9 °C 34875.8 hPa SW 3.1 km/h   66 % 0 mm
14:26 -8.3 °C -11.9 °C 34875.8 hPa SW 3.1 km/h 3.1 km/h 66 % 0 mm
14:31 -8.3 °C -12.4 °C 34875.8 hPa SW 9 km/h 9 km/h 62 % 0 mm
14:32 -8.3 °C -12.3 °C 34875.8 hPa SW 9 km/h 9 km/h 63 % 0 mm
14:35 -8.3 °C -12.1 °C 34875.8 hPa SW 6 km/h 6 km/h 64 % 0 mm
14:44 -8.2 °C -11.6 °C 34875.8 hPa SW 6 km/h 6 km/h 67 % 0 mm
14:46 -8.2 °C -11.5 °C 34865.6 hPa SW 6 km/h 6 km/h 68 % 0 mm
14:51 -8.4 °C -11.7 °C 34865.6 hPa SW 6 km/h 6 km/h 68 % 0 mm
14:53 -8.5 °C -11.8 °C 34865.6 hPa SW 6 km/h 6 km/h 68 % 0 mm
14:57 -8.7 °C -12 °C 34865.6 hPa Calm     68 % 0 mm
15:02 -8.7 °C -11.7 °C 34865.6 hPa SW 3.1 km/h 3.1 km/h 71 % 0 mm
15:07 -8.7 °C -11.9 °C 34865.6 hPa SW 3.1 km/h 3.1 km/h 69 % 0 mm
15:10 -8.7 °C -11.6 °C 34865.6 hPa SW 6 km/h 6 km/h 71 % 0 mm
15:18 -8.7 °C -11.5 °C 34865.6 hPa SW 6 km/h 6 km/h 72 % 0 mm
15:20 -8.8 °C -11.8 °C 34865.6 hPa SW 6 km/h 6 km/h 70 % 0 mm
15:23 -8.8 °C -11.6 °C 34865.6 hPa SW 6 km/h 6 km/h 72 % 0 mm
15:33 -8.9 °C -11.7 °C 34865.6 hPa Calm     72 % 0 mm
15:34 -8.9 °C -11.7 °C 34865.6 hPa Calm     72 % 0 mm
15:35 -8.8 °C -11.7 °C 34865.6 hPa Calm     72 % 0 mm
15:40 -8.9 °C -12.7 °C 34865.6 hPa Calm   0.3 km/h 64 % 0 mm
15:43 -8.9 °C -13.3 °C 34865.6 hPa Calm     60 % 0 mm
15:48 -8.8 °C -13.1 °C 34865.6 hPa Calm     60 % 0 mm
15:51 -8.7 °C -13.3 °C 34865.6 hPa SW 3.1 km/h 3.1 km/h 58 % 0 mm
15:54 -8.7 °C -13.4 °C 34865.6 hPa Calm     57 % 0 mm
15:59 -8.5 °C -14 °C 34865.6 hPa Calm     52 % 0 mm
16:00 -8.4 °C -14 °C 34865.6 hPa Calm     52 % 0 mm
16:05 -8.3 °C -13.6 °C 34865.6 hPa Calm     54 % 0 mm
16:10 -8.3 °C -12.4 °C 34865.6 hPa SW 6 km/h   62 % 0 mm
16:11 -8.2 °C -12.2 °C 34865.6 hPa Calm     63 % 0 mm
16:16 -8.3 °C -12.4 °C 34865.6 hPa SW 6 km/h 6 km/h 62 % 0 mm
16:18 -8.4 °C -12.6 °C 34865.6 hPa SW 3.1 km/h 3.1 km/h 61 % 0 mm
16:20 -8.4 °C -12.6 °C 34865.6 hPa SW 3.1 km/h 3.1 km/h 61 % 0 mm
16:23 -8.4 °C -12.4 °C 34865.6 hPa SW 5.1 km/h 5.1 km/h 62 % 0 mm
16:28 -8.4 °C -12.5 °C 34865.6 hPa SW 3.1 km/h   62 % 0 mm
16:33 -8.3 °C -13.1 °C 34865.6 hPa SW 3.1 km/h 3.1 km/h 57 % 0 mm
16:36 -8.2 °C -13.3 °C 34865.6 hPa Calm     55 % 0 mm
16:41 -8.4 °C -13.9 °C 34865.6 hPa SSW 6 km/h 6 km/h 52 % 0 mm
16:44 -8.3 °C -13.4 °C 34865.6 hPa SSW 2.6 km/h 2.6 km/h 55 % 0 mm
16:49 -8.4 °C -14.1 °C 34865.6 hPa SSW 9 km/h 9 km/h 51 % 0 mm
16:50 -8.4 °C -14 °C 34865.6 hPa SSW 6 km/h 6 km/h 52 % 0 mm
16:51 -8.5 °C -14 °C 34865.6 hPa SSW 3.1 km/h   52 % 0 mm
16:56 -8.4 °C -13.4 °C 34865.6 hPa SSW 3.1 km/h 3.1 km/h 56 % 0 mm
16:58 -8.5 °C -13.7 °C 34865.6 hPa SSW 3.1 km/h   54 % 0 mm
17:00 -8.5 °C -13.8 °C 34865.6 hPa Calm   2.6 km/h 53 % 0 mm
17:05 -8.3 °C -12.6 °C 34875.8 hPa Calm     61 % 0 mm
17:06 -8.3 °C -12.6 °C 34875.8 hPa SSW 9 km/h 9 km/h 61 % 0 mm
17:07 -8.3 °C -12.6 °C 34875.8 hPa SSW 9 km/h 9 km/h 61 % 0 mm
17:11 -8.5 °C -13.6 °C 34875.8 hPa Calm     55 % 0 mm
17:13 -8.5 °C -13.6 °C 34865.6 hPa Calm     55 % 0 mm
17:17 -8.4 °C -13.3 °C 34865.6 hPa Calm     56 % 0 mm
17:22 -8.3 °C -13.7 °C 34875.8 hPa Calm     53 % 0 mm
17:23 -8.3 °C -13.8 °C 34865.6 hPa Calm     52 % 0 mm
17:28 -8.3 °C -14.4 °C 34865.6 hPa East 2.6 km/h 2.6 km/h 48 % 0 mm
17:29 -8.3 °C -14.4 °C 34865.6 hPa East 6 km/h 6 km/h 48 % 0 mm
17:34 -8.2 °C -13.8 °C 34865.6 hPa Calm     51 % 0 mm
17:36 -8.2 °C -13.4 °C 34865.6 hPa Calm     54 % 0 mm
17:41 -8.1 °C -13.4 °C 34865.6 hPa East 6 km/h 6 km/h 53 % 0 mm
17:43 -8.1 °C -13.9 °C 34865.6 hPa East 6 km/h 6 km/h 50 % 0 mm
17:47 -8 °C -13.7 °C 34865.6 hPa SE 6 km/h 6 km/h 51 % 0 mm
17:52 -8 °C -13.4 °C 34865.6 hPa South 9 km/h 9 km/h 53 % 0 mm
17:53 -8 °C -13.4 °C 34865.6 hPa South 9 km/h 9 km/h 53 % 0 mm
17:55 -8 °C -13.3 °C 34865.6 hPa SSW 9 km/h 9 km/h 54 % 0 mm
17:58 -8.1 °C -13 °C 34865.6 hPa SSW 9 km/h 9 km/h 56 % 0 mm
18:03 -8.2 °C -12.8 °C 34865.6 hPa WSW 10.3 km/h 10.3 km/h 58 % 0 mm
18:05 -8.2 °C -13.2 °C 34865.6 hPa WSW 9 km/h 9 km/h 56 % 0 mm
18:08 -8.3 °C -13.4 °C 34875.8 hPa Calm     55 % 0 mm
18:10 -8.4 °C -12.7 °C 34875.8 hPa South 9 km/h 9 km/h 60 % 0 mm
18:17 -8.5 °C -12.9 °C 34875.8 hPa WSW 9 km/h 9 km/h 59 % 0 mm
18:22 -8.6 °C -12.8 °C 34875.8 hPa WSW 6 km/h 6 km/h 61 % 0 mm
18:23 -8.6 °C -12.8 °C 34875.8 hPa WSW 6 km/h 6 km/h 61 % 0 mm
18:28 -8.7 °C -12.3 °C 34875.8 hPa WSW 6 km/h 6 km/h 66 % 0 mm
18:33 -8.9 °C -12.7 °C 34875.8 hPa Calm     64 % 0 mm
18:34 -8.9 °C -12.7 °C 34875.8 hPa Calm     64 % 0 mm
18:35 -8.9 °C -12.4 °C 34889.3 hPa SSE 5.1 km/h 5.1 km/h 66 % 0 mm
18:40 -8.9 °C -12.4 °C 34875.8 hPa Calm     66 % 0 mm
18:46 -9 °C -12.8 °C 34875.8 hPa Calm     64 % 0 mm
18:47 -9 °C -12.8 °C 34875.8 hPa Calm     64 % 0 mm
18:51 -9 °C -13.1 °C 34875.8 hPa Calm     62 % 0 mm
18:54 -9 °C -13.1 °C 34889.3 hPa Calm     62 % 0 mm
18:59 -9.1 °C -13.2 °C 34875.8 hPa Calm     61 % 0 mm
19:02 -9.1 °C -13.4 °C 34875.8 hPa Calm     60 % 0 mm
19:07 -9.1 °C -13.5 °C 34875.8 hPa NW 9 km/h 9 km/h 59 % 0 mm
19:10 -9 °C -13.6 °C 34889.3 hPa NW 15 km/h 15 km/h 58 % 0 mm
19:15 -9 °C -13.7 °C 34875.8 hPa NW 20.9 km/h 20.9 km/h 57 % 0 mm
19:16 -9 °C -13.8 °C 34875.8 hPa NW 23.3 km/h 23.3 km/h 56 % 0 mm
19:21 -8.9 °C -13.9 °C 34875.8 hPa NW 15 km/h 15 km/h 55 % 0 mm
19:26 -8.7 °C -14.1 °C 34875.8 hPa WNW 15 km/h 15 km/h 53 % 0 mm
19:27 -8.7 °C -14.2 °C 34875.8 hPa WNW 10.3 km/h 10.3 km/h 52 % 0 mm
19:29 -8.6 °C -14.4 °C 34875.8 hPa WNW 12.9 km/h 12.9 km/h 50 % 0 mm
19:34 -8.4 °C -14 °C 34875.8 hPa West 11.9 km/h 11.9 km/h 52 % 0 mm
19:35 -8.4 °C -13.8 °C 34875.8 hPa WNW 11.9 km/h 11.9 km/h 53 % 0 mm
19:38 -8.4 °C -13.6 °C 34875.8 hPa WNW 12.9 km/h 12.9 km/h 54 % 0 mm
19:41 -8.2 °C -13.3 °C 34875.8 hPa NNW 29.8 km/h 29.8 km/h 55 % 0 mm
19:45 -8.1 °C -13.1 °C 34865.6 hPa NNW 20.8 km/h 33.6 km/h 55 % 0 mm
19:46 -7.8 °C -12.8 °C 34865.6 hPa NNE 38.8 km/h 38.8 km/h 56 % 0 mm
19:52 -7.2 °C -12.5 °C 34875.8 hPa NE 38.8 km/h 38.8 km/h 54 % 0 mm
19:57 -7.3 °C -12.7 °C 34875.8 hPa NE 38.8 km/h 38.8 km/h 53 % 0 mm
19:58 -7.3 °C -12.7 °C 34875.8 hPa NE 41.7 km/h 41.7 km/h 53 % 0 mm
20:03 -7.7 °C -13.2 °C 34875.8 hPa ENE 35.7 km/h 35.7 km/h 52 % 0 mm
20:09 -7.7 °C -12.8 °C 34875.8 hPa North 47.6 km/h 47.6 km/h 55 % 0 mm
20:10 -7.6 °C -12.7 °C 34875.8 hPa ENE 50.7 km/h 50.7 km/h 55 % 0 mm
20:15 -7 °C -12.6 °C 34875.8 hPa NNE 50.7 km/h 50.7 km/h 52 % 0 mm
20:17 -6.8 °C -12.3 °C 34875.8 hPa NNW 44.7 km/h 44.7 km/h 53 % 0 mm
20:22 -6.6 °C -12.2 °C 34865.6 hPa NNW 47.6 km/h 47.6 km/h 52 % 0 mm
20:23 -6.6 °C -12.3 °C 34865.6 hPa NNW 38.8 km/h 38.8 km/h 51 % 0 mm
20:28 -7.1 °C -12.4 °C 34875.8 hPa NNE 29.8 km/h 29.8 km/h 54 % 0 mm
20:33 -7.6 °C -12.8 °C 34875.8 hPa NE 31.1 km/h 31.1 km/h 54 % 0 mm
20:37 -7.9 °C -13.3 °C 34875.8 hPa NE 29.8 km/h 29.8 km/h 53 % 0 mm
20:43 -8.3 °C -13.4 °C 34875.8 hPa NNE 29.8 km/h 29.8 km/h 55 % 0 mm
20:49 -8.4 °C -13.2 °C 34865.6 hPa North 20.9 km/h 20.9 km/h 57 % 0 mm
20:54 -8.4 °C -13.2 °C 34875.8 hPa NNE 23.8 km/h 23.8 km/h 57 % 0 mm
20:59 -8.4 °C -13.2 °C 34865.6 hPa ENE 17.9 km/h 17.9 km/h 57 % 0 mm
21:02 -8.2 °C -12.7 °C 34875.8 hPa NE 29.8 km/h 29.8 km/h 59 % 0 mm
21:04 -8.2 °C -12.8 °C 34875.8 hPa ENE 26.9 km/h 26.9 km/h 58 % 0 mm
21:15 -8.2 °C -12.9 °C 34875.8 hPa NE 7.7 km/h 20.8 km/h 57 % 0 mm
21:16 -8.2 °C -12.9 °C 34865.6 hPa NE 17.9 km/h 17.9 km/h 57 % 0 mm
21:21 -8.4 °C -12.7 °C 34865.6 hPa North 17.9 km/h 17.9 km/h 60 % 0 mm
21:22 -8.4 °C -12.7 °C 34865.6 hPa North 23.8 km/h 23.8 km/h 60 % 0 mm
21:24 -8.4 °C -12.9 °C 34865.6 hPa NE 18.2 km/h 18.2 km/h 59 % 0 mm
21:27 -8.3 °C -12.9 °C 34865.6 hPa NE 23.8 km/h 23.8 km/h 58 % 0 mm
21:35 -7.9 °C -12.6 °C 34865.6 hPa ENE 20.9 km/h 20.9 km/h 58 % 0 mm
21:40 -8.1 °C -12.3 °C 34865.6 hPa Calm     61 % 0 mm
21:41 -8.2 °C -12.4 °C 34865.6 hPa Calm     61 % 0 mm
21:46 -8.2 °C -12.3 °C 34865.6 hPa Calm     62 % 0 mm
21:47 -8.2 °C -12.3 °C 34865.6 hPa Calm     62 % 0 mm
21:52 -8.2 °C -12.2 °C 34865.6 hPa SE 9 km/h 9.3 km/h 62 % 0 mm
21:57 -8 °C -12.3 °C 34865.6 hPa South 11.9 km/h 11.9 km/h 61 % 0 mm
22:03 -7.8 °C -11.6 °C 34865.6 hPa SSW 35.7 km/h 35.7 km/h 64 % 0 mm
22:08 -7.9 °C -11.4 °C 34875.8 hPa SSW 38.8 km/h 38.8 km/h 67 % 0 mm
22:09 -8 °C -11.2 °C 34875.8 hPa South 38.8 km/h 38.8 km/h 69 % 0 mm
22:15 -8.3 °C -11.3 °C 34865.6 hPa South 35.7 km/h 35.7 km/h 71 % 0 mm
22:19 -8.4 °C -11.3 °C 34875.8 hPa South 35.7 km/h 35.7 km/h 72 % 0 mm
22:24 -8.5 °C -11.2 °C 34875.8 hPa South 33.6 km/h 33.6 km/h 73 % 0 mm
22:25 -8.5 °C -11.3 °C 34875.8 hPa South 35.7 km/h 35.7 km/h 72 % 0 mm
22:26 -8.4 °C -11.3 °C 34875.8 hPa South 32.8 km/h 32.8 km/h 72 % 0 mm
22:31 -8.4 °C -11.1 °C 34875.8 hPa South 23.8 km/h 23.8 km/h 73 % 0 mm
22:33 -8.4 °C -11.2 °C 34875.8 hPa South 17.9 km/h 17.9 km/h 73 % 0 mm
22:36 -8.5 °C -11.2 °C 34875.8 hPa South 9 km/h 9 km/h 73 % 0 mm
22:41 -8.5 °C -11.1 °C 34875.8 hPa South 11.9 km/h 11.9 km/h 74 % 0 mm
22:43 -8.5 °C -11.1 °C 34875.8 hPa Calm     74 % 0 mm
22:49 -8.6 °C -11.4 °C 34889.3 hPa ESE 6 km/h 6 km/h 72 % 0 mm
22:54 -8.7 °C -11.5 °C 34875.8 hPa Calm     72 % 0 mm
22:59 -8.7 °C -11.3 °C 34875.8 hPa Calm     73 % 0 mm
23:01 -8.7 °C -11.3 °C 34875.8 hPa Calm     73 % 0 mm
23:06 -8.7 °C -11.4 °C 34875.8 hPa East 9 km/h 9 km/h 72 % 0 mm
23:07 -8.7 °C -11.4 °C 34889.3 hPa North 12.9 km/h 12.9 km/h 72 % 0 mm
23:09 -8.7 °C -11.8 °C 34889.3 hPa North 15 km/h 15 km/h 70 % 0 mm
23:17 -9 °C -12.1 °C 34889.3 hPa NNE 15 km/h 15 km/h 69 % 0 mm
23:22 -9.1 °C -12.2 °C 34889.3 hPa NNE 9 km/h 9 km/h 69 % 0 mm
23:28 -9.1 °C -12.3 °C 34889.3 hPa North 9 km/h 9 km/h 68 % 0 mm
23:33 -9 °C -12.4 °C 34889.3 hPa NNE 9 km/h 9 km/h 67 % 0 mm
23:36 -8.9 °C -12.4 °C 34889.3 hPa NNE 11.9 km/h 12.4 km/h 66 % 0 mm
23:39 -8.9 °C -12.4 °C 34875.8 hPa North 9 km/h 9 km/h 66 % 0 mm
23:43 -8.9 °C -12.6 °C 34889.3 hPa NNE 9 km/h 9 km/h 65 % 0 mm
23:46 -8.8 °C -12.5 °C 34889.3 hPa North 12.9 km/h 12.9 km/h 65 % 0 mm
23:49 -8.9 °C -12.6 °C 34889.3 hPa NNW 9 km/h 9 km/h 65 % 0 mm
23:52 -8.9 °C -12.6 °C 34875.8 hPa NNW 9 km/h 9 km/h 65 % 0 mm
23:57 -8.8 °C -12.6 °C 34889.3 hPa NNW 15 km/h 15 km/h 64 % 0 mm
Puerto Banus, Marbella
Elogios de Weather Underground - 2.75 mb

Guión original por  Jim McMurry - jmcmurry@mwt.net Adaptado para la plantilla por  Wim van der Kuil - Leuven-Template.eu

Usted encontrará nuestra información del tiempo también en:

Weather Underground

Iberian Peninsula Weather Network